Terminal Aerodrome Forecast
Issued by NWS Sterling, VA

Current Version | Previous Version | Graphics & Text | Print | Product List | Glossary On
Versions: 1 2 3 4 5 6 7 8 9 10 11 12 13 14 15 16 17 18 19
000
FTUS41 KLWX 312329
TAFMRB
TAF
KMRB 312329Z 0100/0124 19005KT P6SM TSRA BKN070CB
     FM010400 18004KT 5SM BR BKN060
     FM011000 00000KT 3SM BR BKN090
     FM011300 VRB03KT P6SM -SHRA BKN080
     FM011600 29005KT P6SM SHRA BKN045=

USA.gov is the U.S. government's official web portal to all federal, state and local government web resources and services.